Time;durP1;ratioP1;P1;durP2;ratioP2;P2;SDS_P1;SDS_P2;PMS_P1;PMS_P2;Temp;Humidity;BMP_temperature;BMP_pressure;BME280_temperature;BME280_humidity;BME280_pressure;Samples;Min_cycle;Max_cycle;Signal;HPM_P1;HPM_P2
2022/06/30 00:02:08;;;;;;;;;;;17.70;99.90;;;;;;5068239;28;19935;-76
2022/06/30 00:04:35;;;;;;;;;;;17.60;99.90;;;;;;5069467;28;19924;-76
2022/06/30 00:07:02;;;;;;;;;;;16.00;99.90;;;;;;5072448;28;19924;-83
2022/06/30 00:09:30;;;;;;;;;;;17.60;99.90;;;;;;5051279;28;19928;-77
2022/06/30 00:11:57;;;;;;;;;;;17.60;99.90;;;;;;5068938;28;19928;-76
2022/06/30 00:14:23;;;;;;;;;;;17.50;99.90;;;;;;5051177;28;19935;-76
2022/06/30 00:16:50;;;;;;;;;;;17.50;99.90;;;;;;5051700;28;19925;-80
2022/06/30 00:19:17;;;;;;;;;;;17.50;99.90;;;;;;5069873;28;19990;-79
2022/06/30 00:21:44;;;;;;;;;;;17.50;99.90;;;;;;5050886;28;19928;-78
2022/06/30 00:24:10;;;;;;;;;;;17.50;99.90;;;;;;5070445;28;19928;-80
2022/06/30 00:26:38;;;;;;;;;;;17.50;99.90;;;;;;5070140;28;20495;-77
2022/06/30 00:29:06;;;;;;;;;;;17.50;99.90;;;;;;5071508;28;20581;-77
2022/06/30 00:31:33;;;;;;;;;;;17.50;99.90;;;;;;5069659;28;19931;-80
2022/06/30 00:34:00;;;;;;;;;;;17.50;99.90;;;;;;5055009;28;19940;-76
2022/06/30 00:36:27;;;;;;;;;;;17.50;99.90;;;;;;5069552;28;19925;-80
2022/06/30 00:38:53;;;;;;;;;;;17.50;99.90;;;;;;5051255;28;19982;-80
2022/06/30 00:41:20;;;;;;;;;;;17.50;99.90;;;;;;5068364;28;19929;-77
2022/06/30 00:43:48;;;;;;;;;;;17.40;99.90;;;;;;5051124;28;19932;-80
2022/06/30 00:46:15;;;;;;;;;;;17.50;99.90;;;;;;5051103;28;20671;-79
2022/06/30 00:48:42;;;;;;;;;;;17.50;99.90;;;;;;5069030;28;20299;-76
2022/06/30 00:51:09;;;;;;;;;;;17.40;99.90;;;;;;5041797;28;20350;-77
2022/06/30 00:53:37;;;;;;;;;;;17.40;99.90;;;;;;5048656;28;19929;-78
2022/06/30 00:56:04;;;;;;;;;;;17.40;99.90;;;;;;5048966;28;19983;-77
2022/06/30 00:58:33;;;;;;;;;;;17.40;99.90;;;;;;5056775;28;19933;-79
2022/06/30 01:01:03;;;;;;;;;;;17.40;99.90;;;;;;5060016;28;19924;-78
2022/06/30 01:03:31;;;;;;;;;;;17.40;99.90;;;;;;5047375;28;19929;-85
2022/06/30 01:05:58;;;;;;;;;;;17.40;99.90;;;;;;5052483;28;19935;-77
2022/06/30 01:08:26;;;;;;;;;;;17.40;99.90;;;;;;5054367;28;19936;-79
2022/06/30 01:13:37;;;;;;;;;;;17.40;99.90;;;;;;5068379;28;19927;-78
2022/06/30 01:16:05;;;;;;;;;;;17.40;99.90;;;;;;5070318;28;19928;-86
2022/06/30 01:18:33;;;;;;;;;;;17.40;99.90;;;;;;5080532;28;19939;-79
2022/06/30 01:21:00;;;;;;;;;;;17.30;99.90;;;;;;5054000;28;20066;-76
2022/06/30 01:23:28;;;;;;;;;;;17.40;99.90;;;;;;5073155;28;19929;-77
2022/06/30 01:25:54;;;;;;;;;;;17.40;99.90;;;;;;5056127;28;19925;-76
2022/06/30 01:28:21;;;;;;;;;;;17.40;99.90;;;;;;5071946;28;19928;-77
2022/06/30 01:30:48;;;;;;;;;;;17.40;99.90;;;;;;5071460;28;19924;-76
2022/06/30 01:33:15;;;;;;;;;;;17.40;99.90;;;;;;5071934;28;19928;-76
2022/06/30 01:35:41;;;;;;;;;;;17.40;99.90;;;;;;5054546;28;20582;-77
2022/06/30 01:38:08;;;;;;;;;;;17.40;99.90;;;;;;5072481;28;19929;-78
2022/06/30 01:40:36;;;;;;;;;;;17.40;99.90;;;;;;5071515;28;20023;-76
2022/06/30 01:43:05;;;;;;;;;;;17.40;99.90;;;;;;5071853;28;20481;-82
2022/06/30 01:45:31;;;;;;;;;;;17.40;99.90;;;;;;5071638;28;20308;-82
2022/06/30 01:47:58;;;;;;;;;;;17.40;99.90;;;;;;5071314;28;19934;-78
2022/06/30 01:50:26;;;;;;;;;;;17.40;99.90;;;;;;5071295;28;19928;-78
2022/06/30 01:52:53;;;;;;;;;;;17.40;99.90;;;;;;5071023;28;19935;-76
2022/06/30 01:55:20;;;;;;;;;;;17.40;99.90;;;;;;5071524;28;19932;-76
2022/06/30 01:57:48;;;;;;;;;;;17.30;99.90;;;;;;5070575;28;20300;-77
2022/06/30 02:00:16;;;;;;;;;;;17.30;99.90;;;;;;5052997;28;19937;-76
2022/06/30 02:02:43;;;;;;;;;;;17.30;99.90;;;;;;5052647;28;20046;-78
2022/06/30 02:05:10;;;;;;;;;;;17.30;99.90;;;;;;5066071;28;19928;-76
2022/06/30 02:07:37;;;;;;;;;;;17.30;99.90;;;;;;5071102;28;20506;-78
2022/06/30 02:10:04;;;;;;;;;;;17.30;99.90;;;;;;5075814;28;19924;-77
2022/06/30 02:12:46;;;;;;;;;;;17.20;99.90;;;;;;5090465;28;19932;-81
2022/06/30 02:15:14;;;;;;;;;;;17.20;99.90;;;;;;5063977;28;19931;-79
2022/06/30 02:17:41;;;;;;;;;;;17.20;99.90;;;;;;5052451;28;19929;-76
2022/06/30 02:20:09;;;;;;;;;;;17.20;99.90;;;;;;5070379;28;19931;-76
2022/06/30 02:22:36;;;;;;;;;;;17.20;99.90;;;;;;5060603;28;19947;-77
2022/06/30 02:25:03;;;;;;;;;;;17.10;99.90;;;;;;5061339;28;19912;-79
2022/06/30 02:27:29;;;;;;;;;;;17.10;99.90;;;;;;5057391;28;19993;-78
2022/06/30 02:29:56;;;;;;;;;;;17.10;99.90;;;;;;5070380;28;19978;-76
2022/06/30 02:32:24;;;;;;;;;;;17.00;99.90;;;;;;5070114;28;19928;-78
2022/06/30 02:34:51;;;;;;;;;;;17.00;99.90;;;;;;5050063;28;20660;-78
2022/06/30 02:37:18;;;;;;;;;;;17.00;99.90;;;;;;5052028;28;19947;-76
2022/06/30 02:39:45;;;;;;;;;;;17.00;99.90;;;;;;5052530;28;19934;-77
2022/06/30 02:42:12;;;;;;;;;;;17.00;99.90;;;;;;5069779;28;20431;-78
2022/06/30 02:44:38;;;;;;;;;;;17.00;99.90;;;;;;5069834;28;19924;-76
2022/06/30 02:47:05;;;;;;;;;;;17.00;99.90;;;;;;5070635;28;19929;-77
2022/06/30 02:49:33;;;;;;;;;;;17.00;99.90;;;;;;5069781;28;19944;-79
2022/06/30 02:52:00;;;;;;;;;;;16.90;99.90;;;;;;5069721;28;20027;-78
2022/06/30 02:54:27;;;;;;;;;;;16.90;99.90;;;;;;5070094;28;19925;-75
2022/06/30 02:56:53;;;;;;;;;;;16.90;99.90;;;;;;5069371;28;19939;-77
2022/06/30 02:59:20;;;;;;;;;;;16.90;99.90;;;;;;5052116;28;19935;-79
2022/06/30 03:01:47;;;;;;;;;;;16.90;99.90;;;;;;5051643;28;20020;-76
2022/06/30 03:04:13;;;;;;;;;;;16.90;99.90;;;;;;5069591;28;19928;-78
2022/06/30 03:06:42;;;;;;;;;;;16.90;99.90;;;;;;5052228;28;19932;-76
2022/06/30 03:09:08;;;;;;;;;;;16.90;99.90;;;;;;5051242;28;19970;-80
2022/06/30 03:11:35;;;;;;;;;;;16.90;99.90;;;;;;5068640;28;20407;-79
2022/06/30 03:14:02;;;;;;;;;;;16.90;99.90;;;;;;5069747;28;19936;-76
2022/06/30 03:16:29;;;;;;;;;;;17.00;99.90;;;;;;5051840;28;19931;-77
2022/06/30 03:18:55;;;;;;;;;;;17.00;99.90;;;;;;5069969;28;20029;-77
2022/06/30 03:21:22;;;;;;;;;;;17.00;99.90;;;;;;5063857;28;19932;-81
2022/06/30 03:23:50;;;;;;;;;;;17.00;99.90;;;;;;5055801;28;19971;-81
2022/06/30 03:26:17;;;;;;;;;;;17.00;99.90;;;;;;5074070;28;19983;-83
2022/06/30 03:28:44;;;;;;;;;;;17.00;99.90;;;;;;5067052;28;19928;-80
2022/06/30 03:31:11;;;;;;;;;;;17.00;99.90;;;;;;5055953;28;19936;-82
2022/06/30 03:33:38;;;;;;;;;;;17.10;99.90;;;;;;5056953;28;19974;-83
2022/06/30 03:36:05;;;;;;;;;;;17.10;99.90;;;;;;5057008;28;19935;-82
2022/06/30 03:38:32;;;;;;;;;;;17.10;99.90;;;;;;5057241;28;20121;-85
2022/06/30 03:41:00;;;;;;;;;;;17.20;99.90;;;;;;5057448;28;20086;-82
2022/06/30 03:43:27;;;;;;;;;;;17.20;99.90;;;;;;5074103;28;19929;-81
2022/06/30 03:45:53;;;;;;;;;;;17.20;99.90;;;;;;5074280;28;20400;-81
2022/06/30 03:48:20;;;;;;;;;;;17.20;99.90;;;;;;5075012;28;19944;-83
2022/06/30 03:50:47;;;;;;;;;;;17.20;99.90;;;;;;5075519;28;20400;-82
2022/06/30 03:53:13;;;;;;;;;;;17.20;99.90;;;;;;5074850;28;19928;-82
2022/06/30 03:55:40;;;;;;;;;;;17.20;99.90;;;;;;5082687;28;19934;-88
2022/06/30 03:58:09;;;;;;;;;;;17.20;99.90;;;;;;5084615;28;19940;-84
2022/06/30 04:00:36;;;;;;;;;;;17.20;99.90;;;;;;5077589;28;20402;-81
2022/06/30 04:03:02;;;;;;;;;;;17.20;99.90;;;;;;5075499;28;19928;-85
2022/06/30 04:05:29;;;;;;;;;;;16.40;99.90;;;;;;5072930;28;19951;-84
2022/06/30 04:07:56;;;;;;;;;;;17.20;99.90;;;;;;5072905;28;19924;-81
2022/06/30 04:10:23;;;;;;;;;;;17.20;99.90;;;;;;5074484;28;19937;-85
2022/06/30 04:12:50;;;;;;;;;;;17.30;99.90;;;;;;5076359;28;20363;-82
2022/06/30 04:15:18;;;;;;;;;;;13.80;99.90;;;;;;5093760;28;20007;-82
2022/06/30 04:17:45;;;;;;;;;;;17.30;99.90;;;;;;5076909;28;19932;-81
2022/06/30 04:20:16;;;;;;;;;;;17.30;99.90;;;;;;5057389;28;20253;-86
2022/06/30 04:22:44;;;;;;;;;;;17.40;99.90;;;;;;5055636;28;20140;-83
2022/06/30 04:25:11;;;;;;;;;;;17.40;99.90;;;;;;5035448;28;19947;-82
2022/06/30 04:27:41;;;;;;;;;;;17.50;99.90;;;;;;5037598;28;19991;-82
2022/06/30 04:30:08;;;;;;;;;;;17.50;99.90;;;;;;5061467;28;20011;-84
2022/06/30 04:32:38;;;;;;;;;;;17.60;99.90;;;;;;5056993;28;19935;-81
2022/06/30 04:35:06;;;;;;;;;;;17.70;99.90;;;;;;5056444;28;19990;-83
2022/06/30 04:37:33;;;;;;;;;;;17.70;99.90;;;;;;5073681;28;19928;-83
2022/06/30 04:42:45;;;;;;;;;;;17.90;99.90;;;;;;5064995;28;19983;-81
2022/06/30 04:45:13;;;;;;;;;;;18.00;99.90;;;;;;5056282;28;20303;-84
2022/06/30 04:47:41;;;;;;;;;;;18.10;99.90;;;;;;5055890;28;19981;-82
2022/06/30 04:50:08;;;;;;;;;;;18.10;99.90;;;;;;5072302;28;19936;-85
2022/06/30 04:52:35;;;;;;;;;;;18.20;99.90;;;;;;5055017;28;19924;-86
2022/06/30 04:55:02;;;;;;;;;;;18.30;99.90;;;;;;5055229;28;19939;-83
2022/06/30 04:57:29;;;;;;;;;;;18.40;99.90;;;;;;5056660;28;19943;-84
2022/06/30 04:59:56;;;;;;;;;;;18.50;99.90;;;;;;5079937;28;19935;-84
2022/06/30 05:02:24;;;;;;;;;;;18.60;99.90;;;;;;5084265;28;19928;-82
2022/06/30 05:04:52;;;;;;;;;;;18.70;99.90;;;;;;5085919;28;19969;-81
2022/06/30 05:07:18;;;;;;;;;;;18.90;99.90;;;;;;5074052;28;19925;-81
2022/06/30 05:09:45;;;;;;;;;;;18.90;99.90;;;;;;5077155;28;19925;-83
2022/06/30 05:12:12;;;;;;;;;;;19.10;99.90;;;;;;5074535;28;19936;-85
2022/06/30 05:14:46;;;;;;;;;;;19.20;99.90;;;;;;5017843;28;19947;-86
2022/06/30 05:17:22;;;;;;;;;;;19.40;99.90;;;;;;4971931;28;19947;-87
2022/06/30 05:19:50;;;;;;;;;;;19.30;99.90;;;;;;4932230;28;20175;-90
2022/06/30 05:22:24;;;;;;;;;;;19.80;99.90;;;;;;4927396;28;20343;-90
2022/06/30 05:27:37;;;;;;;;;;;20.20;99.90;;;;;;4925347;28;19924;-90
2022/06/30 05:30:05;;;;;;;;;;;20.20;99.90;;;;;;4916498;28;19928;-89
2022/06/30 05:32:32;;;;;;;;;;;20.40;99.90;;;;;;4915334;28;20502;-91
2022/06/30 05:34:59;;;;;;;;;;;20.70;99.90;;;;;;5010807;28;19928;-82
2022/06/30 05:37:27;;;;;;;;;;;22.60;99.90;;;;;;5056953;28;19929;-83
2022/06/30 05:39:54;;;;;;;;;;;23.20;99.90;;;;;;5057473;28;19934;-82
2022/06/30 05:42:20;;;;;;;;;;;26.50;99.90;;;;;;5061675;28;19928;-87
2022/06/30 05:44:48;;;;;;;;;;;26.50;99.90;;;;;;5059683;28;19928;-84
2022/06/30 05:47:15;;;;;;;;;;;28.10;99.90;;;;;;5061510;28;19940;-82
2022/06/30 05:49:42;;;;;;;;;;;29.60;99.90;;;;;;5056688;28;19925;-81
2022/06/30 05:52:08;;;;;;;;;;;30.80;99.90;;;;;;5064436;28;19928;-86
2022/06/30 05:54:36;;;;;;;;;;;33.20;99.90;;;;;;5069835;28;20003;-84
2022/06/30 05:57:04;;;;;;;;;;;34.20;99.90;;;;;;5063005;28;19935;-84
2022/06/30 05:59:32;;;;;;;;;;;34.30;99.90;;;;;;5081890;28;19955;-85
2022/06/30 06:01:59;;;;;;;;;;;35.30;99.90;;;;;;5062598;28;19932;-87
2022/06/30 06:04:25;;;;;;;;;;;36.80;99.90;;;;;;5063207;28;20418;-85
2022/06/30 06:06:52;;;;;;;;;;;37.50;99.90;;;;;;5062139;28;19932;-84
2022/06/30 06:09:19;;;;;;;;;;;37.60;99.90;;;;;;5066550;28;20363;-86
2022/06/30 06:11:47;;;;;;;;;;;38.20;99.90;;;;;;5082416;28;19928;-86
2022/06/30 06:14:15;;;;;;;;;;;38.90;99.70;;;;;;5065827;28;19940;-83
2022/06/30 06:16:42;;;;;;;;;;;39.20;99.40;;;;;;5067333;28;19928;-85
2022/06/30 06:19:09;;;;;;;;;;;39.20;98.40;;;;;;5067258;28;19921;-84
2022/06/30 06:21:37;;;;;;;;;;;39.40;95.40;;;;;;5065123;28;19939;-86
2022/06/30 06:24:04;;;;;;;;;;;39.60;94.00;;;;;;5066344;28;19928;-86
2022/06/30 06:26:31;;;;;;;;;;;40.00;93.10;;;;;;5064136;28;19935;-84
2022/06/30 06:29:07;;;;;;;;;;;40.30;90.80;;;;;;5063311;28;19933;-85
2022/06/30 06:31:34;;;;;;;;;;;40.50;90.50;;;;;;5060169;28;20349;-85
2022/06/30 06:34:01;;;;;;;;;;;40.70;87.20;;;;;;5062062;28;19924;-83
2022/06/30 06:36:28;;;;;;;;;;;40.80;86.00;;;;;;5059797;28;19934;-84
2022/06/30 06:38:55;;;;;;;;;;;40.80;84.20;;;;;;5083396;28;19934;-84
2022/06/30 06:41:22;;;;;;;;;;;40.90;81.60;;;;;;5079372;28;20023;-83
2022/06/30 06:43:49;;;;;;;;;;;40.50;80.50;;;;;;5075267;28;19932;-85
2022/06/30 06:46:17;;;;;;;;;;;41.20;80.80;;;;;;5043672;28;19931;-84
2022/06/30 06:48:44;;;;;;;;;;;41.50;79.80;;;;;;5063253;28;20031;-87
2022/06/30 06:51:11;;;;;;;;;;;41.70;77.30;;;;;;5054734;28;19924;-87
2022/06/30 06:53:38;;;;;;;;;;;41.90;76.00;;;;;;5054213;28;19928;-79
2022/06/30 06:56:05;;;;;;;;;;;42.00;74.90;;;;;;5070009;28;19932;-81
2022/06/30 06:58:32;;;;;;;;;;;42.30;74.20;;;;;;5069253;28;20495;-80
2022/06/30 07:01:00;;;;;;;;;;;42.40;71.70;;;;;;5052360;28;20010;-78
2022/06/30 07:03:29;;;;;;;;;;;41.70;70.00;;;;;;5072331;28;19925;-78
2022/06/30 07:05:56;;;;;;;;;;;42.10;69.70;;;;;;5058419;28;19959;-80
2022/06/30 07:08:23;;;;;;;;;;;42.00;70.50;;;;;;5068884;28;19929;-77
2022/06/30 07:10:50;;;;;;;;;;;41.90;68.20;;;;;;5068992;28;19928;-81
2022/06/30 07:13:16;;;;;;;;;;;42.00;67.60;;;;;;5068944;28;19935;-77
2022/06/30 07:15:43;;;;;;;;;;;42.10;66.70;;;;;;5071447;28;19928;-77
2022/06/30 07:18:10;;;;;;;;;;;42.10;66.20;;;;;;5069825;28;19925;-81
2022/06/30 07:20:38;;;;;;;;;;;42.00;65.80;;;;;;5058075;28;19928;-78
2022/06/30 07:23:05;;;;;;;;;;;42.00;65.50;;;;;;5046927;28;19970;-77
2022/06/30 07:25:32;;;;;;;;;;;42.20;65.10;;;;;;5073697;28;19924;-77
2022/06/30 07:27:58;;;;;;;;;;;42.30;64.50;;;;;;5068097;28;20457;-81
2022/06/30 07:30:25;;;;;;;;;;;42.80;61.60;;;;;;5066663;28;19932;-82
2022/06/30 07:32:52;;;;;;;26.13;11.25;;;43.10;62.40;;;;;;5065248;28;20062;-78
2022/06/30 07:35:20;;;;;;;24.27;9.98;;;43.30;61.30;;;;;;5068614;28;20219;-78
2022/06/30 07:37:48;;;;;;;26.35;10.27;;;43.50;62.60;;;;;;5055257;28;20239;-83
2022/06/30 07:40:16;;;;;;;26.02;10.75;;;43.60;59.70;;;;;;5066223;28;20200;-79
2022/06/30 07:42:43;;;;;;;24.60;9.85;;;43.70;59.50;;;;;;5068083;28;20185;-81
2022/06/30 07:45:12;;;;;;;21.63;8.75;;;43.80;58.60;;;;;;5068722;28;20641;-77
2022/06/30 07:47:40;;;;;;;23.55;9.25;;;43.80;58.30;;;;;;5049748;28;20712;-81
2022/06/30 07:50:09;;;;;;;19.98;8.80;;;43.30;55.40;;;;;;5068630;28;20201;-77
2022/06/30 07:52:36;;;;;;;26.27;10.85;;;43.30;55.90;;;;;;5067863;28;20317;-78
2022/06/30 07:55:05;;;;;;;20.50;9.43;;;42.90;56.90;;;;;;5068219;28;20204;-78
2022/06/30 07:57:32;;;;;;;19.70;9.20;;;42.80;56.60;;;;;;5067615;28;20220;-79
2022/06/30 07:59:59;;;;;;;25.67;9.82;;;42.70;57.20;;;;;;5049548;28;20702;-83
2022/06/30 08:02:26;;;;;;;19.05;8.80;;;42.40;56.70;;;;;;5067062;28;20675;-79
2022/06/30 08:04:53;;;;;;;18.50;8.38;;;;;;;;;;5067837;28;20908;-78
2022/06/30 08:07:20;;;;;;;25.08;9.32;;;41.30;58.30;;;;;;5049498;28;20564;-78
2022/06/30 08:09:47;;;;;;;19.65;8.05;;;41.30;57.50;;;;;;5067815;28;20288;-77
2022/06/30 08:12:15;;;;;;;20.38;8.63;;;41.50;57.60;;;;;;5067288;28;20215;-83
2022/06/30 08:14:42;;;;;;;22.90;8.07;;;41.70;57.40;;;;;;5070541;28;20279;-81
2022/06/30 08:17:09;;;;;;;19.50;7.57;;;41.40;57.70;;;;;;5069343;28;20227;-79
2022/06/30 08:19:36;;;;;;;17.65;7.22;;;41.50;56.80;;;;;;5050662;28;20714;-77
2022/06/30 08:22:03;;;;;;;28.13;8.65;;;41.30;57.40;;;;;;5068353;28;20218;-77
2022/06/30 08:24:30;;;;;;;24.08;7.72;;;41.30;55.80;;;;;;5069792;28;20286;-77
2022/06/30 08:27:00;;;;;;;17.60;7.30;;;40.90;56.00;;;;;;5071764;28;20204;-80
2022/06/30 08:29:29;;;;;;;22.13;6.90;;;41.00;55.00;;;;;;5075759;28;20188;-79
2022/06/30 08:31:56;;;;;;;20.58;7.35;;;40.70;55.50;;;;;;5066863;28;20216;-79
2022/06/30 08:34:22;;;;;;;19.13;7.38;;;40.70;56.10;;;;;;5068621;28;20766;-81
2022/06/30 08:36:49;;;;;;;19.90;7.75;;;40.80;55.50;;;;;;5066989;28;20766;-80
2022/06/30 08:42:04;;;;;;;22.00;7.20;;;40.90;55.20;;;;;;5070836;28;20218;-78
2022/06/30 08:44:35;;;;;;;22.75;7.60;;;40.90;54.40;;;;;;5065850;28;20215;-79
2022/06/30 08:47:04;;;;;;;17.45;7.32;;;40.50;55.40;;;;;;5067676;28;20475;-79
2022/06/30 08:49:32;;;;;;;20.13;7.03;;;40.50;55.00;;;;;;5057099;28;20215;-80
2022/06/30 08:52:01;;;;;;;20.70;7.15;;;40.50;54.60;;;;;;5067558;28;20595;-80
2022/06/30 08:54:30;;;;;;;20.85;7.82;;;40.30;54.70;;;;;;5069125;28;20267;-80
2022/06/30 08:57:00;;;;;;;18.60;6.93;;;39.80;53.70;;;;;;5050790;28;20265;-78
2022/06/30 08:59:28;;;;;;;22.88;7.35;;;39.80;54.00;;;;;;5074599;28;20306;-81
2022/06/30 09:01:57;;;;;;;23.20;8.05;;;39.40;55.20;;;;;;5068397;28;20208;-79
2022/06/30 09:04:23;;;;;;;21.05;8.55;;;39.40;55.80;;;;;;5066299;28;20205;-77
2022/06/30 09:06:50;;;;;;;24.17;7.95;;;38.60;55.90;;;;;;5068327;28;20306;-82
2022/06/30 09:09:18;;;;;;;27.75;8.10;;;38.70;56.20;;;;;;5069019;28;20185;-77
2022/06/30 09:11:51;;;;;;;22.58;8.10;;;38.50;55.80;;;;;;5069563;28;20260;-81
2022/06/30 09:14:39;;;;;;;21.67;7.15;;;38.00;55.70;;;;;;5069585;28;20196;-78
2022/06/30 09:17:09;;;;;;;27.52;7.82;;;37.20;56.90;;;;;;5069329;28;20239;-81
2022/06/30 09:19:40;;;;;;;24.25;7.28;;;37.30;57.80;;;;;;5051020;28;20223;-83
2022/06/30 09:22:12;;;;;;;22.23;6.20;;;37.40;58.40;;;;;;5049810;28;20216;-78
2022/06/30 09:24:39;;;;;;;23.00;7.47;;;37.50;58.20;;;;;;5068398;28;20196;-77
2022/06/30 09:27:19;;;;;;;21.83;6.82;;;37.60;56.60;;;;;;5084108;28;20228;-78
2022/06/30 09:29:51;;;;;;;22.30;7.40;;;37.60;57.10;;;;;;5067330;28;20212;-78
2022/06/30 09:32:20;;;;;;;18.63;7.00;;;37.20;57.10;;;;;;5049343;28;20215;-76
2022/06/30 09:34:50;;;;;;;18.23;6.47;;;36.60;58.40;;;;;;5049453;28;20216;-81
2022/06/30 09:37:20;;;;;;;21.42;6.75;;;36.40;58.90;;;;;;5050018;28;20228;-79
2022/06/30 09:39:48;;;;;;;18.50;6.68;;;36.30;58.80;;;;;;5070665;28;20209;-83
2022/06/30 09:42:35;;;;;;;18.25;7.10;;;36.10;59.00;;;;;;5068632;28;20192;-82
2022/06/30 09:45:02;;;;;;;22.05;7.80;;;35.70;58.70;;;;;;5077359;28;20198;-79
2022/06/30 09:47:30;;;;;;;17.92;6.72;;;35.60;58.90;;;;;;5091007;28;20231;-81
2022/06/30 09:50:02;;;;;;;21.70;6.75;;;35.50;59.30;;;;;;5091215;28;20237;-80
2022/06/30 09:52:29;;;;;;;23.85;6.63;;;35.60;59.80;;;;;;5059583;28;20220;-81
2022/06/30 09:54:59;;;;;;;16.95;6.03;;;35.60;59.60;;;;;;5068966;28;20205;-81
2022/06/30 09:57:27;;;;;;;17.38;6.03;;;35.50;58.70;;;;;;5037848;28;20237;-82
2022/06/30 10:00:04;;;;;;;22.38;6.40;;;35.50;59.00;;;;;;5073450;28;20200;-82
2022/06/30 10:02:37;;;;;;;20.60;5.95;;;35.20;58.70;;;;;;5076984;28;20297;-82
2022/06/30 10:05:07;;;;;;;17.25;5.63;;;34.90;57.70;;;;;;5073564;28;20283;-79
2022/06/30 10:07:37;;;;;;;18.73;5.25;;;;;;;;;;5072736;28;20246;-80
2022/06/30 10:10:09;;;;;;;14.82;5.00;;;34.40;58.20;;;;;;5055268;28;20206;-81
2022/06/30 10:12:37;;;;;;;15.55;4.68;;;33.90;60.20;;;;;;5053880;28;20242;-80
2022/06/30 10:15:06;;;;;;;16.10;5.00;;;33.30;60.50;;;;;;5081600;28;20569;-80
2022/06/30 10:17:38;;;;;;;18.23;5.63;;;32.60;61.00;;;;;;5057774;28;20224;-80
2022/06/30 10:20:06;;;;;;;;;;;32.00;62.00;;;;;;5074778;28;20215;-81
2022/06/30 10:22:33;;;;;;;;;;;31.80;62.70;;;;;;5068400;28;19935;-79
2022/06/30 10:25:00;;;;;;;;;;;31.40;62.70;;;;;;5058099;28;20035;-80
2022/06/30 10:27:28;;;;;;;;;;;31.30;63.70;;;;;;5074257;28;20001;-80
2022/06/30 10:29:56;;;;;;;;;;;31.20;64.20;;;;;;5056659;28;19931;-82
2022/06/30 10:32:28;;;;;;;;;;;31.20;65.00;;;;;;5075712;28;19999;-82
2022/06/30 10:35:00;;;;;;;;;;;31.10;66.20;;;;;;5056653;28;20404;-82
2022/06/30 10:37:31;;;;;;;;;;;31.00;65.50;;;;;;5052965;28;19932;-83
2022/06/30 10:39:59;;;;;;;;;;;31.00;66.90;;;;;;5058983;28;19944;-81
2022/06/30 10:42:41;;;;;;;;;;;30.90;67.80;;;;;;5052970;28;20323;-82
2022/06/30 10:45:33;;;;;;;;;;;30.80;67.90;;;;;;5071224;28;19939;-78
2022/06/30 10:48:01;;;;;;;;;;;30.80;68.80;;;;;;5051986;28;19928;-81
2022/06/30 10:50:32;;;;;;;;;;;30.90;67.70;;;;;;5070486;28;19974;-80
2022/06/30 10:52:59;;;;;;;;;;;31.00;67.40;;;;;;5070103;28;19928;-79
2022/06/30 10:55:26;;;;;;;;;;;31.10;67.10;;;;;;5071571;28;20013;-78
2022/06/30 10:58:03;;;;;;;;;;;31.30;66.00;;;;;;5070547;28;19936;-79
2022/06/30 11:00:43;;;;;;;;;;;31.30;66.60;;;;;;5052599;28;20561;-80
2022/06/30 11:03:30;;;;;;;;;;;31.40;67.20;;;;;;5052969;28;19929;-82
2022/06/30 11:05:59;;;;;;;;;;;31.50;67.40;;;;;;5063762;28;20078;-80
2022/06/30 11:08:48;;;;;;;;;;;31.60;66.90;;;;;;5069474;28;19929;-78
2022/06/30 11:11:34;;;;;;;;;;;31.60;67.60;;;;;;5052226;28;19928;-80
2022/06/30 11:14:20;;;;;;;;;;;31.70;68.00;;;;;;5050920;28;19959;-77
2022/06/30 11:16:48;;;;;;;;;;;31.60;67.20;;;;;;5055087;28;19934;-80
2022/06/30 11:19:16;;;;;;;;;;;31.60;68.00;;;;;;5091970;28;19916;-85
2022/06/30 11:21:44;;;;;;;;;;;31.70;68.30;;;;;;5078665;28;19959;-79
2022/06/30 11:24:12;;;;;;;;;;;31.90;68.80;;;;;;5055858;28;19932;-81
2022/06/30 11:29:26;;;;;;;;;;;32.20;67.90;;;;;;5061152;28;20406;-79
2022/06/30 11:31:58;;;;;;;;;;;32.00;68.90;;;;;;5052981;28;19928;-83
2022/06/30 11:34:38;;;;;;;;;;;31.60;69.50;;;;;;5081520;28;19913;-79
2022/06/30 11:37:06;;;;;;;;;;;31.40;69.50;;;;;;5057650;28;19928;-78
2022/06/30 11:39:33;;;;;;;;;;;31.40;70.50;;;;;;5052089;28;19998;-77
2022/06/30 11:42:03;;;;;;;;;;;31.20;70.70;;;;;;5076128;28;19971;-78
2022/06/30 11:44:31;;;;;;;;;;;31.20;71.60;;;;;;5054740;28;19924;-78
2022/06/30 11:46:59;;;;;;;;;;;31.30;70.70;;;;;;5068796;28;20289;-80
2022/06/30 11:49:27;;;;;;;;;;;31.30;72.10;;;;;;5069064;28;20011;-79
2022/06/30 11:51:55;;;;;;;;;;;31.60;71.60;;;;;;5062009;28;19982;-79
2022/06/30 11:54:24;;;;;;;;;;;31.80;70.10;;;;;;5069527;28;20015;-78
2022/06/30 11:56:52;;;;;;;;;;;31.90;68.90;;;;;;5068838;28;19928;-78
2022/06/30 11:59:19;;;;;;;;;;;32.00;69.40;;;;;;5056963;28;19968;-80
2022/06/30 12:02:06;;;;;;;;;;;31.80;68.50;;;;;;5069599;28;19924;-78
2022/06/30 12:04:34;;;;;;;;;;;31.70;68.60;;;;;;5046822;28;20549;-77
2022/06/30 12:07:01;;;;;;;;;;;31.80;68.90;;;;;;5053900;28;20368;-85
2022/06/30 12:09:29;;;;;;;;;;;31.80;69.00;;;;;;5076238;28;19978;-78
2022/06/30 12:11:57;;;;;;;;;;;31.90;68.90;;;;;;5051821;28;20023;-78
2022/06/30 12:14:25;;;;;;;;;;;32.00;68.60;;;;;;5045300;28;19943;-83
2022/06/30 12:16:55;;;;;;;;;;;32.10;67.60;;;;;;5049803;28;19928;-78
2022/06/30 12:19:22;;;;;;;;;;;32.10;68.00;;;;;;5049912;28;19929;-81
2022/06/30 12:21:48;;;;;;;;;;;32.30;67.80;;;;;;5066672;28;19928;-78
2022/06/30 12:24:15;;;;;;;;;;;32.50;67.80;;;;;;5051295;28;19928;-80
2022/06/30 12:26:42;;;;;;;;;;;;;;;;;;5051307;28;19939;-82
2022/06/30 12:29:14;;;;;;;;;;;33.10;66.30;;;;;;5051897;28;19947;-79
2022/06/30 12:31:40;;;;;;;;;;;33.30;66.20;;;;;;5070099;28;20269;-80
2022/06/30 12:34:07;;;;;;;;;;;33.40;64.50;;;;;;5069791;28;19936;-79
2022/06/30 12:36:35;;;;;;;;;;;33.50;64.70;;;;;;5069854;28;20079;-79
2022/06/30 12:39:11;;;;;;;;;;;33.60;64.60;;;;;;5050731;28;19925;-80
2022/06/30 12:41:38;;;;;;;;;;;33.70;64.80;;;;;;5059315;28;19932;-78
2022/06/30 12:44:05;;;;;;;;;;;33.60;64.50;;;;;;5079081;28;19940;-79
2022/06/30 12:46:39;;;;;;;;;;;33.50;64.60;;;;;;5061196;28;20352;-79
2022/06/30 12:49:06;;;;;;;;;;;33.50;64.60;;;;;;5053623;28;19954;-78
2022/06/30 12:51:41;;;;;;;;;;;33.50;65.60;;;;;;5055853;28;19924;-77
2022/06/30 12:54:08;;;;;;;;;;;33.80;65.70;;;;;;5073550;28;19998;-77
2022/06/30 12:56:35;;;;;;;;;;;33.70;66.10;;;;;;5044522;28;20363;-77
2022/06/30 12:59:03;;;;;;;;;;;33.70;64.80;;;;;;5033418;28;19936;-78
2022/06/30 13:01:31;;;;;;;;;;;33.70;64.80;;;;;;5071828;28;20017;-77
2022/06/30 13:04:00;;;;;;;;;;;33.60;64.40;;;;;;5049973;28;20034;-77
2022/06/30 13:06:28;;;;;;;;;;;33.60;65.00;;;;;;5050786;28;20326;-77
2022/06/30 13:08:55;;;;;;;;;;;33.80;64.00;;;;;;5077361;28;19931;-79
2022/06/30 13:11:23;;;;;;;;;;;33.90;64.50;;;;;;5084757;28;19925;-78
2022/06/30 13:13:53;;;;;;;;;;;33.90;64.30;;;;;;5066817;28;19955;-78
2022/06/30 13:16:20;;;;;;;;;;;33.90;63.60;;;;;;5069283;28;19955;-77
2022/06/30 13:18:48;;;;;;;;;;;33.70;62.30;;;;;;5085418;28;19958;-78
2022/06/30 13:21:17;;;;;;;;;;;33.70;62.60;;;;;;5071180;28;20202;-78
2022/06/30 13:23:44;;;;;;;;;;;33.90;63.00;;;;;;5069523;28;19988;-80
2022/06/30 13:26:11;;;;;;;;;;;33.70;62.60;;;;;;5068856;28;19925;-77
2022/06/30 13:28:37;;;;;;;;;;;33.90;62.60;;;;;;5086231;28;19931;-79
2022/06/30 13:31:05;;;;;;;;;;;34.00;63.10;;;;;;5090192;28;19924;-78
2022/06/30 13:33:34;;;;;;;;;;;34.00;62.50;;;;;;5090851;28;19934;-79
2022/06/30 13:36:03;;;;;;;;;;;33.70;61.80;;;;;;5089860;28;20494;-78
2022/06/30 13:38:31;;;;;;;;;;;33.60;62.10;;;;;;5072683;28;19935;-78
2022/06/30 13:41:00;;;;;;;;;;;33.60;63.20;;;;;;5087373;28;19959;-79
2022/06/30 13:43:27;;;;;;;;;;;33.60;63.60;;;;;;5091325;28;19928;-79
2022/06/30 13:45:55;;;;;;;;;;;33.70;63.60;;;;;;5077838;28;19924;-79
2022/06/30 13:48:21;;;;;;;;;;;33.80;63.30;;;;;;5077996;28;19928;-77
2022/06/30 13:50:49;;;;;;;;;;;33.90;63.50;;;;;;5073254;28;20027;-78
2022/06/30 13:53:16;;;;;;;;;;;33.90;62.10;;;;;;5077063;28;19929;-83
2022/06/30 13:55:46;;;;;;;;;;;33.80;61.70;;;;;;5061334;28;19959;-79
2022/06/30 13:58:13;;;;;;;;;;;33.80;61.60;;;;;;5070368;28;19928;-77
2022/06/30 14:00:42;;;;;;;;;;;34.00;62.10;;;;;;5058746;28;19925;-80
2022/06/30 14:03:08;;;;;;;;;;;34.10;61.70;;;;;;5053087;28;19929;-78
2022/06/30 14:05:35;;;;;;;;;;;34.20;61.50;;;;;;5070890;28;19936;-78
2022/06/30 14:08:02;;;;;;;;;;;34.00;61.40;;;;;;5072927;28;20890;-81
2022/06/30 14:10:29;;;;;;;;;;;33.90;61.90;;;;;;5070357;28;19932;-78
2022/06/30 14:12:57;;;;;;;;;;;33.70;62.40;;;;;;5052181;28;20330;-78
2022/06/30 14:15:24;;;;;;;;;;;33.70;62.60;;;;;;5070690;28;20329;-77
2022/06/30 14:17:51;;;;;;;;;;;33.80;62.80;;;;;;5069576;28;19982;-77